Archival Weather

Chicago O'Hare International

Chicago, Illinois (KORD)

Report from: Tuesday, December 6, 2022 7:51 AM CST
Current time: Saturday, February 4, 2023 10:43 PM CST

Current weather
Weather history
Weather forecast

Temperature4.4°C (39.9°F)
Wind chill1.7°C (35.1°F)
Dew point0.6°C (33.1°F)
Winds 6 kts (3.1 m/s, 6.9 mph) North-Northeast (20°)
Visibility10 mi. (16.1 km)
Clouds Ceiling: Broken clouds 4,600 ft. (1,402 m)
Broken clouds 11,000 ft. (3,353 m)
Altimeter30.00 in.Hg (1016 mB)
Relative humidity76 %
Density altitude-1,277 ft. (-389 m)
Sea-level pressure101.6 kPa (1016 mB, 30.01 in.Hg)
Remarks Automated weather observing station with precipitation discriminator
Flight conditions Visual Meteorological Conditions
Raw dataKORD 061351Z 02006KT 10SM BKN046 BKN110 04/01 A3000 RMK AO2 SLP164 T00440006
An unhandled exception has occurred. See browser dev tools for details. Reload 🗙